createdAt,value
2023-06-16T00:01:32.633Z,81.21
2023-06-16T00:06:34.700Z,80.49
2023-06-16T00:11:36.673Z,78.53
2023-06-16T00:16:38.487Z,76.82
2023-06-16T00:21:42.773Z,77.12
2023-06-16T00:26:44.469Z,79.12
2023-06-16T00:31:46.666Z,79.50
2023-06-16T00:36:48.372Z,77.14
2023-06-16T00:41:51.949Z,77.85
2023-06-16T00:46:54.436Z,79.19
2023-06-16T00:51:56.814Z,81.31
2023-06-16T00:57:00.448Z,81.75
2023-06-16T01:02:03.373Z,81.85
2023-06-16T01:07:12.994Z,81.70
2023-06-16T01:12:53.375Z,79.58
2023-06-16T01:18:00.989Z,79.34
2023-06-16T01:23:26.502Z,81.37
2023-06-16T01:28:31.616Z,81.79
2023-06-16T01:33:34.714Z,81.58
2023-06-16T01:38:37.589Z,80.32
2023-06-16T01:43:40.518Z,79.69
2023-06-16T01:48:42.364Z,82.17
2023-06-16T01:53:44.066Z,83.24
2023-06-16T01:58:46.257Z,82.02
2023-06-16T02:04:00.199Z,80.49
2023-06-16T02:09:05.822Z,82.91
2023-06-16T02:14:08.195Z,82.61
2023-06-16T02:19:11.066Z,81.62
2023-06-16T02:24:13.004Z,81.67
2023-06-16T02:29:14.773Z,80.23
2023-06-16T02:34:17.777Z,80.54
2023-06-16T02:39:20.240Z,80.65
2023-06-16T02:44:23.203Z,80.99
2023-06-16T02:49:25.069Z,80.42
2023-06-16T02:54:26.855Z,81.06
2023-06-16T02:59:30.101Z,80.29
2023-06-16T03:04:31.918Z,80.40
2023-06-16T03:09:41.505Z,79.70
2023-06-16T03:14:43.925Z,78.52
2023-06-16T03:19:49.664Z,78.44
2023-06-16T03:24:53.837Z,77.32
2023-06-16T03:29:55.643Z,76.97
2023-06-16T03:34:58.264Z,74.30
2023-06-16T03:40:07.021Z,69.43
2023-06-16T03:45:10.330Z,66.22
2023-06-16T03:50:12.174Z,62.54
2023-06-16T03:55:16.254Z,59.25
2023-06-16T04:00:18.691Z,55.17
2023-06-16T04:07:13.409Z,48.98
2023-06-16T04:12:16.670Z,49.51
2023-06-16T04:17:18.504Z,48.59
2023-06-16T04:22:32.493Z,48.59
2023-06-16T04:27:34.632Z,47.24
2023-06-16T04:32:37.826Z,44.37
2023-06-16T04:37:43.229Z,41.91
2023-06-16T04:42:48.484Z,41.62
2023-06-16T04:47:53.941Z,39.79
2023-06-16T04:52:55.943Z,38.00
2023-06-16T04:57:57.677Z,37.49
2023-06-16T05:02:59.574Z,37.51
2023-06-16T05:08:02.236Z,36.27
2023-06-16T05:13:04.009Z,35.52
2023-06-16T05:18:06.883Z,35.21
2023-06-16T05:23:09.285Z,36.40
2023-06-16T05:28:11.465Z,35.79
2023-06-16T05:33:14.310Z,34.57
2023-06-16T05:38:17.142Z,35.60
2023-06-16T05:43:19.480Z,34.83
2023-06-16T05:48:21.569Z,35.55
2023-06-16T05:53:23.552Z,36.55
2023-06-16T05:58:25.694Z,35.59
2023-06-16T06:03:28.724Z,35.99
2023-06-16T06:08:30.928Z,35.38
2023-06-16T06:13:33.868Z,35.92
2023-06-16T06:18:35.888Z,35.59
2023-06-16T06:23:37.793Z,35.42
2023-06-16T06:28:39.975Z,35.84
2023-06-16T06:33:42.458Z,36.53
2023-06-16T06:38:44.269Z,36.34
2023-06-16T06:43:46.399Z,36.45
2023-06-16T06:48:52.386Z,37.55
2023-06-16T06:53:55.813Z,37.55
2023-06-16T06:58:57.621Z,37.96
2023-06-16T07:03:59.441Z,38.89
2023-06-16T07:09:01.302Z,39.55
2023-06-16T07:14:03.117Z,40.62
2023-06-16T07:19:04.891Z,42.95
2023-06-16T07:24:07.208Z,44.79
2023-06-16T07:29:08.914Z,45.24
2023-06-16T07:34:10.718Z,44.89
2023-06-16T07:39:12.631Z,44.38
2023-06-16T07:44:14.402Z,44.54
2023-06-16T07:49:16.334Z,44.84
2023-06-16T07:54:18.263Z,43.39
2023-06-16T07:59:19.996Z,44.04
2023-06-16T08:04:21.855Z,43.81
2023-06-16T08:09:24.530Z,43.56
2023-06-16T08:14:27.237Z,43.00
2023-06-16T08:19:28.990Z,43.20
2023-06-16T08:24:31.799Z,42.97
2023-06-16T08:29:34.383Z,41.69
2023-06-16T08:34:37.590Z,41.64
2023-06-16T08:39:39.276Z,40.73
2023-06-16T08:44:41.618Z,41.08
2023-06-16T08:49:44.404Z,41.10
2023-06-16T08:54:49.633Z,40.68
2023-06-16T08:59:56.242Z,41.44
2023-06-16T09:04:59.772Z,41.91
2023-06-16T09:10:02.167Z,40.91
2023-06-16T09:15:09.665Z,41.11
2023-06-16T09:20:16.594Z,41.77
2023-06-16T09:25:20.064Z,41.20
2023-06-16T09:30:23.297Z,40.36
2023-06-16T09:35:27.893Z,40.23
2023-06-16T09:40:34.458Z,40.76
2023-06-16T09:45:36.747Z,39.36
2023-06-16T09:50:41.547Z,39.65
2023-06-16T09:55:43.352Z,38.94
2023-06-16T10:00:46.162Z,36.51
2023-06-16T10:05:53.919Z,37.11
2023-06-16T10:10:55.747Z,37.62
2023-06-16T10:16:00.650Z,38.57
2023-06-16T10:21:03.394Z,38.73
2023-06-16T10:26:06.711Z,38.22
2023-06-16T10:31:12.334Z,39.64
2023-06-16T10:36:21.609Z,38.69
2023-06-16T10:41:25.143Z,38.25
2023-06-16T10:46:27.221Z,36.82
2023-06-16T10:51:58.068Z,37.15
2023-06-16T11:02:19.808Z,36.16
2023-06-16T11:07:34.717Z,35.39
2023-06-16T11:12:38.432Z,33.81
2023-06-16T11:17:43.474Z,33.14
2023-06-16T11:22:45.390Z,33.82
2023-06-16T11:27:47.423Z,34.25
2023-06-16T11:32:49.462Z,33.44
2023-06-16T11:37:57.943Z,33.51
2023-06-16T11:43:00.710Z,33.49
2023-06-16T11:48:04.637Z,33.64
2023-06-16T11:53:06.542Z,33.08
2023-06-16T11:58:08.319Z,33.34
2023-06-16T12:03:11.048Z,33.79
2023-06-16T12:08:12.855Z,34.25
2023-06-16T12:13:14.565Z,35.13
2023-06-16T12:18:16.694Z,34.63
2023-06-16T12:23:21.491Z,34.68
2023-06-16T12:28:23.230Z,35.64
2023-06-16T12:33:26.639Z,36.48
2023-06-16T12:38:33.083Z,37.03
2023-06-16T12:43:36.897Z,36.01
2023-06-16T12:48:38.605Z,35.22
2023-06-16T12:53:45.831Z,35.29
2023-06-16T12:58:47.864Z,34.32
2023-06-16T13:03:49.724Z,34.26
2023-06-16T13:08:51.616Z,33.52
2023-06-16T13:13:53.904Z,32.09
2023-06-16T13:18:55.601Z,33.18
2023-06-16T13:23:57.561Z,33.18
2023-06-16T13:29:00.226Z,33.60
2023-06-16T13:34:02.917Z,33.28
2023-06-16T13:39:05.456Z,32.21
2023-06-16T13:44:07.349Z,31.81
2023-06-16T13:49:11.396Z,32.46
2023-06-16T13:54:14.349Z,32.34
2023-06-16T13:59:16.057Z,31.46
2023-06-16T14:04:17.827Z,31.11
2023-06-16T14:09:19.583Z,30.73
2023-06-16T14:14:21.717Z,32.47
2023-06-16T14:19:24.914Z,31.26
2023-06-16T14:24:26.926Z,31.28
2023-06-16T14:29:28.807Z,30.40
2023-06-16T14:34:30.934Z,29.77
2023-06-16T14:39:32.698Z,30.31
2023-06-16T14:44:34.626Z,30.92
2023-06-16T14:49:36.307Z,30.63
2023-06-16T14:54:38.438Z,31.20
2023-06-16T14:59:40.223Z,31.49
2023-06-16T15:04:41.976Z,30.73
2023-06-16T15:09:43.736Z,30.72
2023-06-16T15:14:45.455Z,31.08
2023-06-16T15:19:47.126Z,30.46
2023-06-16T15:24:48.908Z,30.34
2023-06-16T15:29:50.838Z,30.74
2023-06-16T15:34:52.642Z,30.69
2023-06-16T15:39:54.580Z,31.25
2023-06-16T15:44:56.305Z,30.71
2023-06-16T15:49:57.985Z,31.37
2023-06-16T15:54:59.638Z,30.33
2023-06-16T16:00:01.461Z,30.64
2023-06-16T16:05:06.474Z,30.87
2023-06-16T16:10:09.068Z,31.33
2023-06-16T16:15:11.415Z,31.73
2023-06-16T16:20:13.244Z,32.17
2023-06-16T16:25:14.999Z,32.95
2023-06-16T16:30:16.882Z,33.20
2023-06-16T16:35:19.393Z,33.51
2023-06-16T16:40:21.456Z,33.74
2023-06-16T16:45:23.420Z,33.92
2023-06-16T16:50:25.153Z,35.14
2023-06-16T16:55:36.482Z,36.84
2023-06-16T17:00:38.816Z,37.65
2023-06-16T17:05:40.627Z,37.68
2023-06-16T17:10:42.465Z,37.90
2023-06-16T17:15:44.390Z,38.20
2023-06-16T17:20:46.206Z,38.09
2023-06-16T17:25:47.950Z,37.35
2023-06-16T17:30:49.688Z,39.37
2023-06-16T17:35:51.459Z,41.69
2023-06-16T17:40:56.484Z,43.01
2023-06-16T17:45:58.245Z,43.94
2023-06-16T17:50:59.940Z,44.14
2023-06-16T17:56:05.223Z,44.48
2023-06-16T18:01:07.213Z,44.79
2023-06-16T18:06:11.356Z,46.09
2023-06-16T18:11:13.023Z,47.15
2023-06-16T18:16:14.794Z,49.16
2023-06-16T18:21:16.628Z,51.08
2023-06-16T18:26:18.436Z,52.95
2023-06-16T18:31:21.431Z,54.49
2023-06-16T18:36:23.139Z,55.21
2023-06-16T18:41:24.896Z,56.34
2023-06-16T18:46:26.650Z,57.51
2023-06-16T18:51:29.809Z,58.05
2023-06-16T18:56:33.443Z,59.51
2023-06-16T19:01:37.237Z,60.35
2023-06-16T19:06:39.068Z,60.65
2023-06-16T19:11:40.775Z,62.84
2023-06-16T19:16:42.791Z,63.62
2023-06-16T19:21:44.517Z,63.86
2023-06-16T19:26:46.281Z,63.80
2023-06-16T19:31:50.344Z,64.33
2023-06-16T19:36:53.281Z,65.63
2023-06-16T19:41:55.021Z,66.57
2023-06-16T19:46:57.074Z,66.73
2023-06-16T19:51:59.012Z,67.02
2023-06-16T19:57:00.933Z,67.66
2023-06-16T20:02:03.427Z,67.81
2023-06-16T20:07:07.325Z,68.80
2023-06-16T20:12:09.675Z,69.37
2023-06-16T20:17:11.475Z,69.36
2023-06-16T20:22:13.520Z,68.38
2023-06-16T20:27:15.458Z,67.51
2023-06-16T20:32:17.290Z,69.22
2023-06-16T20:37:19.074Z,67.52
2023-06-16T20:42:23.383Z,69.68
2023-06-16T20:47:26.132Z,71.42
2023-06-16T20:52:28.895Z,72.10
2023-06-16T20:57:30.585Z,71.13
2023-06-16T21:02:34.966Z,70.85
2023-06-16T21:07:38.692Z,70.93
2023-06-16T21:12:40.749Z,71.53
2023-06-16T21:17:46.545Z,72.47
2023-06-16T21:22:50.871Z,72.93
2023-06-16T21:27:52.713Z,73.16
2023-06-16T21:33:00.348Z,73.42
2023-06-16T21:38:04.014Z,73.83
2023-06-16T21:43:05.823Z,72.85
2023-06-16T21:48:07.727Z,72.84
2023-06-16T21:53:10.710Z,73.84
2023-06-16T21:58:15.611Z,73.77
2023-06-16T22:03:19.256Z,73.66
2023-06-16T22:08:22.059Z,73.69
2023-06-16T22:13:23.771Z,74.48
2023-06-16T22:18:26.070Z,75.39
2023-06-16T22:23:28.105Z,75.55
2023-06-16T22:28:30.259Z,75.86
2023-06-16T22:33:32.081Z,75.05
2023-06-16T22:38:34.353Z,76.07
2023-06-16T22:43:36.482Z,77.99
2023-06-16T22:48:42.075Z,80.11
2023-06-16T22:53:44.510Z,80.74
2023-06-16T22:58:46.340Z,81.13
2023-06-16T23:03:48.155Z,82.04
2023-06-16T23:08:50.104Z,81.63
2023-06-16T23:13:58.464Z,81.71
2023-06-16T23:19:01.305Z,81.38
2023-06-16T23:24:06.304Z,81.11
2023-06-16T23:29:08.303Z,81.53
2023-06-16T23:34:10.064Z,81.51
2023-06-16T23:39:12.227Z,81.72
2023-06-16T23:44:13.985Z,82.95
2023-06-16T23:49:15.669Z,83.62
2023-06-16T23:54:18.321Z,83.90
2023-06-16T23:59:22.406Z,84.20
